createdAt,value
2023-01-17T00:02:33.106Z,107.38
2023-01-17T00:05:59.343Z,99.70
2023-01-17T00:09:23.205Z,108.40
2023-01-17T00:12:31.536Z,118.35
2023-01-17T00:15:40.200Z,109.18
2023-01-17T00:19:05.950Z,118.00
2023-01-17T00:22:38.930Z,104.65
2023-01-17T00:26:02.754Z,117.68
2023-01-17T00:29:07.732Z,106.75
2023-01-17T00:32:12.829Z,101.78
2023-01-17T00:35:19.403Z,94.50
2023-01-17T00:38:27.513Z,98.82
2023-01-17T00:41:32.988Z,88.20
2023-01-17T00:44:57.164Z,110.00
2023-01-17T00:48:21.468Z,96.28
2023-01-17T00:51:47.505Z,89.55
2023-01-17T00:55:11.580Z,93.78
2023-01-17T00:58:35.496Z,88.72
2023-01-17T01:01:59.759Z,95.30
2023-01-17T01:05:24.085Z,86.88
2023-01-17T01:08:49.049Z,84.93
2023-01-17T01:12:12.992Z,74.68
2023-01-17T01:15:36.633Z,71.53
2023-01-17T01:19:00.749Z,80.18
2023-01-17T01:22:24.902Z,83.60
2023-01-17T01:25:49.024Z,75.50
2023-01-17T01:29:13.129Z,86.57
2023-01-17T01:32:37.392Z,84.25
2023-01-17T01:35:43.211Z,75.30
2023-01-17T01:38:50.527Z,79.88
2023-01-17T01:41:55.843Z,99.35
2023-01-17T01:45:01.642Z,91.82
2023-01-17T01:48:35.052Z,94.30
2023-01-17T01:51:44.791Z,88.72
2023-01-17T01:54:59.299Z,85.13
2023-01-17T01:58:11.685Z,99.47
2023-01-17T02:01:18.233Z,76.85
2023-01-17T02:04:25.420Z,90.22
2023-01-17T02:07:35.939Z,83.13
2023-01-17T02:10:44.324Z,100.28
2023-01-17T02:13:49.698Z,94.63
2023-01-17T02:16:57.863Z,90.70
2023-01-17T02:20:36.936Z,97.80
2023-01-17T02:24:00.378Z,88.28
2023-01-17T02:27:24.062Z,86.72
2023-01-17T02:30:39.772Z,84.13
2023-01-17T02:33:57.754Z,76.70
2023-01-17T02:37:35.327Z,81.97
2023-01-17T02:40:52.503Z,85.10
2023-01-17T02:43:58.161Z,92.03
2023-01-17T02:47:27.467Z,90.15
2023-01-17T02:50:54.584Z,79.07
2023-01-17T02:54:21.373Z,77.55
2023-01-17T02:57:58.720Z,75.50
2023-01-17T03:01:19.724Z,74.40
2023-01-17T03:04:35.062Z,73.68
2023-01-17T03:07:43.239Z,71.93
2023-01-17T03:10:49.085Z,68.80
2023-01-17T03:13:57.320Z,69.07
2023-01-17T03:17:02.674Z,73.03
2023-01-17T03:20:08.908Z,118.40
2023-01-17T03:23:14.467Z,81.28
2023-01-17T03:26:20.178Z,77.63
2023-01-17T03:29:25.903Z,71.40
2023-01-17T03:32:31.801Z,79.60
2023-01-17T03:35:37.718Z,70.10
2023-01-17T03:38:43.004Z,79.18
2023-01-17T03:41:48.527Z,81.50
2023-01-17T03:44:54.107Z,74.63
2023-01-17T03:48:00.475Z,78.75
2023-01-17T03:51:06.275Z,73.35
2023-01-17T03:54:11.832Z,76.47
2023-01-17T03:57:19.739Z,73.28
2023-01-17T04:00:25.368Z,72.55
2023-01-17T04:03:31.432Z,71.57
2023-01-17T04:06:36.884Z,74.70
2023-01-17T04:09:42.448Z,76.30
2023-01-17T04:12:48.134Z,73.40
2023-01-17T04:15:53.813Z,65.15
2023-01-17T04:18:59.973Z,70.32
2023-01-17T04:22:05.595Z,80.60
2023-01-17T04:25:11.733Z,71.38
2023-01-17T04:28:17.262Z,70.00
2023-01-17T04:31:23.078Z,73.60
2023-01-17T04:34:28.638Z,74.25
2023-01-17T04:37:34.050Z,63.22
2023-01-17T04:40:39.449Z,72.85
2023-01-17T04:43:44.765Z,71.82
2023-01-17T04:46:50.112Z,69.88
2023-01-17T04:49:55.849Z,73.70
2023-01-17T04:53:01.280Z,73.68
2023-01-17T04:56:07.254Z,71.60
2023-01-17T04:59:12.687Z,78.00
2023-01-17T05:02:18.107Z,78.13
2023-01-17T05:05:23.727Z,61.42
2023-01-17T05:08:29.206Z,77.20
2023-01-17T05:11:35.025Z,71.68
2023-01-17T05:14:40.680Z,74.53
2023-01-17T05:17:46.863Z,67.78
2023-01-17T05:20:52.358Z,78.25
2023-01-17T05:23:57.693Z,69.38
2023-01-17T05:27:06.493Z,75.65
2023-01-17T05:30:12.632Z,81.22
2023-01-17T05:33:17.847Z,70.25
2023-01-17T05:36:23.046Z,81.43
2023-01-17T05:39:28.251Z,79.72
2023-01-17T05:42:34.190Z,72.72
2023-01-17T05:45:39.507Z,85.10
2023-01-17T05:48:44.754Z,78.93
2023-01-17T05:51:50.549Z,87.43
2023-01-17T05:54:55.755Z,89.78
2023-01-17T05:58:02.533Z,71.53
2023-01-17T06:01:07.913Z,77.10
2023-01-17T06:04:13.719Z,84.10
2023-01-17T06:07:19.098Z,87.15
2023-01-17T06:10:25.393Z,101.03
2023-01-17T06:13:31.246Z,84.90
2023-01-17T06:16:36.852Z,82.78
2023-01-17T06:19:42.637Z,86.20
2023-01-17T06:22:48.653Z,80.32
2023-01-17T06:25:54.038Z,94.05
2023-01-17T06:28:59.538Z,90.55
2023-01-17T06:32:05.551Z,79.80
2023-01-17T06:35:10.668Z,91.20
2023-01-17T06:38:16.593Z,93.60
2023-01-17T06:41:23.574Z,77.45
2023-01-17T06:44:29.305Z,81.18
2023-01-17T06:47:39.079Z,87.57
2023-01-17T06:50:44.869Z,87.07
2023-01-17T06:53:50.071Z,78.80
2023-01-17T06:56:55.491Z,80.93
2023-01-17T07:00:01.001Z,74.95
2023-01-17T07:03:15.641Z,72.18
2023-01-17T07:06:21.607Z,77.13
2023-01-17T07:09:27.591Z,51.08
2023-01-17T07:12:32.969Z,50.60
2023-01-17T07:15:38.577Z,45.33
2023-01-17T07:18:44.194Z,31.40
2023-01-17T07:21:53.783Z,31.35
2023-01-17T07:24:59.184Z,30.63
2023-01-17T07:28:04.915Z,26.88
2023-01-17T07:31:10.802Z,26.83
2023-01-17T07:34:16.367Z,29.02
2023-01-17T07:37:22.274Z,24.52
2023-01-17T07:40:27.743Z,29.02
2023-01-17T07:43:33.151Z,31.25
2023-01-17T07:46:38.716Z,31.42
2023-01-17T07:49:44.179Z,34.08
2023-01-17T07:52:51.501Z,39.20
2023-01-17T07:56:01.964Z,38.20
2023-01-17T07:59:07.571Z,34.40
2023-01-17T08:02:22.040Z,36.22
2023-01-17T08:05:28.806Z,37.63
2023-01-17T08:08:34.685Z,38.17
2023-01-17T08:11:40.101Z,41.47
2023-01-17T08:14:45.856Z,39.97
2023-01-17T08:17:54.923Z,46.53
2023-01-17T08:21:00.438Z,39.25
2023-01-17T08:24:05.749Z,34.83
2023-01-17T08:27:11.483Z,33.83
2023-01-17T08:30:17.605Z,38.17
2023-01-17T08:33:23.368Z,33.40
2023-01-17T08:36:31.420Z,36.50
2023-01-17T08:39:36.860Z,35.40
2023-01-17T08:42:44.537Z,38.22
2023-01-17T08:45:50.588Z,39.05
2023-01-17T08:48:59.056Z,41.28
2023-01-17T08:52:05.817Z,40.00
2023-01-17T08:55:11.901Z,40.00
2023-01-17T08:58:17.505Z,32.83
2023-01-17T09:01:23.091Z,38.67
2023-01-17T09:04:28.495Z,39.47
2023-01-17T09:07:33.867Z,36.63
2023-01-17T09:10:39.434Z,36.03
2023-01-17T09:13:45.147Z,38.20
2023-01-17T09:16:51.327Z,34.03
2023-01-17T09:19:56.806Z,38.20
2023-01-17T09:23:04.934Z,33.20
2023-01-17T09:26:23.602Z,39.10
2023-01-17T09:29:28.758Z,36.50
2023-01-17T09:32:33.828Z,37.60
2023-01-17T09:35:39.302Z,36.08
2023-01-17T09:38:45.558Z,38.42
2023-01-17T09:42:36.704Z,38.42
2023-01-17T09:45:42.685Z,34.08
2023-01-17T09:48:49.972Z,37.60
2023-01-17T09:51:55.603Z,36.63
2023-01-17T09:55:02.227Z,37.60
2023-01-17T09:58:19.911Z,34.20
2023-01-17T10:01:48.072Z,32.65
2023-01-17T10:05:30.789Z,24.42
2023-01-17T10:08:58.109Z,28.30
2023-01-17T10:12:09.272Z,24.55
2023-01-17T10:15:43.381Z,25.05
2023-01-17T10:19:13.333Z,23.63
2023-01-17T10:22:54.641Z,23.13
2023-01-17T10:26:10.290Z,20.42
2023-01-17T10:29:21.051Z,22.38
2023-01-17T10:32:33.213Z,21.42
2023-01-17T10:35:52.553Z,21.95
2023-01-17T10:39:02.993Z,18.48
2023-01-17T10:42:23.681Z,20.20
2023-01-17T10:45:40.702Z,18.27
2023-01-17T10:48:49.880Z,18.25
2023-01-17T10:52:32.525Z,19.48
2023-01-17T10:55:56.287Z,20.17
2023-01-17T10:59:13.689Z,15.77
2023-01-17T11:02:26.549Z,20.27
2023-01-17T11:05:35.617Z,15.32
2023-01-17T11:08:52.007Z,14.73
2023-01-17T11:11:57.530Z,22.17
2023-01-17T11:15:09.118Z,22.08
2023-01-17T11:18:20.167Z,17.88
2023-01-17T11:21:26.164Z,20.50
2023-01-17T11:24:48.494Z,17.85
2023-01-17T11:28:19.812Z,17.98
2023-01-17T11:31:27.933Z,15.52
2023-01-17T11:34:33.618Z,15.02
2023-01-17T11:37:39.521Z,15.60
2023-01-17T11:40:47.677Z,12.82
2023-01-17T11:43:56.262Z,17.23
2023-01-17T11:47:11.898Z,13.23
2023-01-17T11:50:26.270Z,11.20
2023-01-17T11:53:37.239Z,17.20
2023-01-17T11:56:46.717Z,11.18
2023-01-17T12:00:19.845Z,9.07
2023-01-17T12:03:45.840Z,8.80
2023-01-17T12:07:15.785Z,7.18
2023-01-17T12:11:06.955Z,7.25
2023-01-17T12:14:30.472Z,5.65
2023-01-17T12:17:51.633Z,6.88
2023-01-17T12:21:23.220Z,7.70
2023-01-17T12:24:47.668Z,5.47
2023-01-17T12:28:04.118Z,4.53
2023-01-17T12:31:23.870Z,6.43
2023-01-17T12:34:41.447Z,4.50
2023-01-17T12:38:04.924Z,3.88
2023-01-17T12:41:34.503Z,3.17
2023-01-17T12:44:52.116Z,3.30
2023-01-17T12:48:10.813Z,4.05
2023-01-17T12:51:27.901Z,3.72
2023-01-17T12:54:42.193Z,3.40
2023-01-17T12:57:56.735Z,3.70
2023-01-17T13:01:07.824Z,4.43
2023-01-17T13:04:23.220Z,4.07
2023-01-17T13:07:57.077Z,4.68
2023-01-17T13:11:29.000Z,3.25
2023-01-17T13:14:34.650Z,3.92
2023-01-17T13:17:48.533Z,4.03
2023-01-17T13:21:32.495Z,3.22
2023-01-17T13:25:03.172Z,4.38
2023-01-17T13:28:32.893Z,2.10
2023-01-17T13:31:59.432Z,2.97
2023-01-17T13:35:07.435Z,1.83
2023-01-17T13:38:43.463Z,2.00
2023-01-17T13:42:11.213Z,2.92
2023-01-17T13:45:28.170Z,2.53
2023-01-17T13:48:38.643Z,2.92
2023-01-17T13:52:11.198Z,2.42
2023-01-17T13:55:46.550Z,3.42
2023-01-17T13:58:54.894Z,2.20
2023-01-17T14:02:00.373Z,2.20
2023-01-17T14:05:09.796Z,4.40
2023-01-17T14:08:22.403Z,2.38
2023-01-17T14:14:44.485Z,3.47
2023-01-17T14:17:56.315Z,3.35
2023-01-17T14:21:31.904Z,2.58
2023-01-17T14:25:00.843Z,3.55
2023-01-17T14:28:31.026Z,2.40
2023-01-17T14:31:38.175Z,2.22
2023-01-17T14:34:47.182Z,3.20
2023-01-17T14:37:54.459Z,3.72
2023-01-17T14:41:07.961Z,4.43
2023-01-17T14:44:13.756Z,4.47
2023-01-17T14:47:19.507Z,6.53
2023-01-17T14:50:29.825Z,5.03
2023-01-17T14:53:35.439Z,12.15
2023-01-17T14:56:40.786Z,2.53
2023-01-17T14:59:46.754Z,2.35
2023-01-17T15:02:54.099Z,2.30
2023-01-17T15:06:13.287Z,2.25
2023-01-17T15:09:28.928Z,3.63
2023-01-17T15:12:37.139Z,4.60
2023-01-17T15:15:42.611Z,3.35
2023-01-17T15:18:49.086Z,3.40
2023-01-17T15:21:55.385Z,2.00
2023-01-17T15:25:01.251Z,4.43
2023-01-17T15:28:13.006Z,2.38
2023-01-17T15:31:22.398Z,2.63
2023-01-17T15:34:40.132Z,3.05
2023-01-17T15:37:46.026Z,3.85
2023-01-17T15:40:51.556Z,3.58
2023-01-17T15:43:57.870Z,3.42
2023-01-17T15:47:04.950Z,3.00
2023-01-17T15:50:30.470Z,6.28
2023-01-17T15:53:39.117Z,5.05
2023-01-17T15:56:45.824Z,13.68
2023-01-17T16:00:24.591Z,12.30
2023-01-17T16:03:31.367Z,19.25
2023-01-17T16:06:45.761Z,14.88
2023-01-17T16:09:51.390Z,10.18
2023-01-17T16:12:57.036Z,16.73
2023-01-17T16:16:14.518Z,13.45
2023-01-17T16:19:21.619Z,9.82
2023-01-17T16:22:27.605Z,8.40
2023-01-17T16:25:33.170Z,6.63
2023-01-17T16:28:39.411Z,10.95
2023-01-17T16:31:45.196Z,24.35
2023-01-17T16:34:50.437Z,14.80
2023-01-17T16:37:59.723Z,11.85
2023-01-17T16:41:05.750Z,8.35
2023-01-17T16:44:11.553Z,6.63
2023-01-17T16:47:17.038Z,4.35
2023-01-17T16:50:25.216Z,4.68
2023-01-17T16:53:30.814Z,5.13
2023-01-17T16:56:36.099Z,5.90
2023-01-17T16:59:50.661Z,4.25
2023-01-17T17:02:56.409Z,3.60
2023-01-17T17:06:02.124Z,5.88
2023-01-17T17:09:07.726Z,8.50
2023-01-17T17:12:13.562Z,4.90
2023-01-17T17:15:19.008Z,4.45
2023-01-17T17:18:24.667Z,5.47
2023-01-17T17:21:32.230Z,4.97
2023-01-17T17:24:37.529Z,3.33
2023-01-17T17:27:43.900Z,4.00
2023-01-17T17:30:49.559Z,3.90
2023-01-17T17:34:01.315Z,4.15
2023-01-17T17:37:07.122Z,5.15
2023-01-17T17:40:12.615Z,2.80
2023-01-17T17:43:18.414Z,8.60
2023-01-17T17:46:27.483Z,3.95
2023-01-17T17:49:33.110Z,4.53
2023-01-17T17:52:38.682Z,3.85
2023-01-17T17:55:44.121Z,6.93
2023-01-17T17:58:49.392Z,8.73
2023-01-17T18:01:55.043Z,9.15
2023-01-17T18:05:00.376Z,12.10
2023-01-17T18:08:06.320Z,11.35
2023-01-17T18:11:18.895Z,10.73
2023-01-17T18:14:24.766Z,10.95
2023-01-17T18:17:30.077Z,12.90
2023-01-17T18:20:35.651Z,15.02
2023-01-17T18:23:44.138Z,11.65
2023-01-17T18:26:57.872Z,13.07
2023-01-17T18:30:03.913Z,15.20
2023-01-17T18:33:10.974Z,14.98
2023-01-17T18:36:16.153Z,13.93
2023-01-17T18:39:24.795Z,15.10
2023-01-17T18:42:30.325Z,13.02
2023-01-17T18:45:35.776Z,15.82
2023-01-17T18:48:41.852Z,17.23
2023-01-17T18:51:51.582Z,15.20
2023-01-17T18:54:57.396Z,15.30
2023-01-17T18:58:02.823Z,13.68
2023-01-17T19:01:14.928Z,15.63
2023-01-17T19:04:20.405Z,13.98
2023-01-17T19:07:29.271Z,12.63
2023-01-17T19:10:34.881Z,15.93
2023-01-17T19:13:42.218Z,13.70
2023-01-17T19:16:47.776Z,15.77
2023-01-17T19:19:53.083Z,13.93
2023-01-17T19:22:59.418Z,11.88
2023-01-17T19:26:08.482Z,15.52
2023-01-17T19:29:15.064Z,15.77
2023-01-17T19:32:20.285Z,16.25
2023-01-17T19:35:25.331Z,18.90
2023-01-17T19:38:30.977Z,16.00
2023-01-17T19:41:42.287Z,18.20
2023-01-17T19:44:47.925Z,16.70
2023-01-17T19:47:53.609Z,19.75
2023-01-17T19:51:05.195Z,16.48
2023-01-17T19:54:10.890Z,19.02
2023-01-17T19:57:16.237Z,18.85
2023-01-17T20:00:30.076Z,14.63
2023-01-17T20:03:38.047Z,16.13
2023-01-17T20:06:43.702Z,16.35
2023-01-17T20:09:49.719Z,15.65
2023-01-17T20:12:56.014Z,14.23
2023-01-17T20:16:07.071Z,16.83
2023-01-17T20:19:13.821Z,20.13
2023-01-17T20:22:19.883Z,15.18
2023-01-17T20:25:27.704Z,14.82
2023-01-17T20:28:36.626Z,16.30
2023-01-17T20:31:44.572Z,14.05
2023-01-17T20:34:52.501Z,14.40
2023-01-17T20:37:59.528Z,13.85
2023-01-17T20:41:06.472Z,18.02
2023-01-17T20:44:15.735Z,15.48
2023-01-17T20:47:21.552Z,17.30
2023-01-17T20:50:27.709Z,17.02
2023-01-17T20:53:35.307Z,15.85
2023-01-17T20:56:41.470Z,16.48
2023-01-17T20:59:48.422Z,17.48
2023-01-17T21:02:53.854Z,14.73
2023-01-17T21:06:05.108Z,16.20
2023-01-17T21:09:14.607Z,16.08
2023-01-17T21:12:21.720Z,18.88
2023-01-17T21:15:27.426Z,16.48
2023-01-17T21:18:33.084Z,14.75
2023-01-17T21:21:38.338Z,16.60
2023-01-17T21:24:43.748Z,18.90
2023-01-17T21:27:49.188Z,19.83
2023-01-17T21:30:55.763Z,18.05
2023-01-17T21:34:05.231Z,15.27
2023-01-17T21:37:10.866Z,18.50
2023-01-17T21:40:18.704Z,16.33
2023-01-17T21:43:24.488Z,16.30
2023-01-17T21:46:30.625Z,20.42
2023-01-17T21:49:36.243Z,15.95
2023-01-17T21:52:41.321Z,15.48
2023-01-17T21:56:05.248Z,16.77
2023-01-17T21:59:10.630Z,17.15
2023-01-17T22:02:15.912Z,24.38
2023-01-17T22:05:21.344Z,17.83
2023-01-17T22:08:32.327Z,20.20
2023-01-17T22:11:37.586Z,14.30
2023-01-17T22:14:42.915Z,22.45
2023-01-17T22:17:48.677Z,18.13
2023-01-17T22:20:54.221Z,18.42
2023-01-17T22:24:00.589Z,20.80
2023-01-17T22:27:10.290Z,20.40
2023-01-17T22:30:16.426Z,21.13
2023-01-17T22:33:22.522Z,16.30
2023-01-17T22:36:29.793Z,19.73
2023-01-17T22:39:35.488Z,21.92
2023-01-17T22:42:40.730Z,20.77
2023-01-17T22:45:46.761Z,18.10
2023-01-17T22:48:53.363Z,21.05
2023-01-17T22:51:59.030Z,23.20
2023-01-17T22:55:05.665Z,19.92
2023-01-17T22:58:11.376Z,20.98
2023-01-17T23:01:28.355Z,22.85
2023-01-17T23:04:33.882Z,21.42
2023-01-17T23:07:45.094Z,21.42
2023-01-17T23:11:08.724Z,20.35
2023-01-17T23:14:23.084Z,16.38
2023-01-17T23:17:47.370Z,17.92
2023-01-17T23:20:52.567Z,17.67
2023-01-17T23:23:57.938Z,20.80
2023-01-17T23:27:22.055Z,17.92
2023-01-17T23:30:38.846Z,20.02
2023-01-17T23:33:44.057Z,19.50
2023-01-17T23:36:49.134Z,21.77
2023-01-17T23:39:54.391Z,20.27
2023-01-17T23:43:17.651Z,17.50
2023-01-17T23:46:24.753Z,18.83
2023-01-17T23:49:31.504Z,19.63
2023-01-17T23:52:36.904Z,17.80
2023-01-17T23:55:47.314Z,19.42
2023-01-17T23:58:52.482Z,17.73
